sensor_id;sensor_type;location;lat;lon;timestamp;P1;durP1;ratioP1;P2;durP2;ratioP2
19113;SDS011;9689;51.052;13.772;2023-03-13T00:03:28;17.20;;;2.75;;
19113;SDS011;9689;51.052;13.772;2023-03-13T00:08:29;15.25;;;3.53;;
19113;SDS011;9689;51.052;13.772;2023-03-13T00:13:30;20.15;;;4.35;;
19113;SDS011;9689;51.052;13.772;2023-03-13T00:18:32;13.00;;;3.10;;
19113;SDS011;9689;51.052;13.772;2023-03-13T00:23:33;19.50;;;3.63;;
19113;SDS011;9689;51.052;13.772;2023-03-13T00:28:35;25.10;;;4.05;;
19113;SDS011;9689;51.052;13.772;2023-03-13T00:33:39;17.13;;;4.32;;
19113;SDS011;9689;51.052;13.772;2023-03-13T00:38:41;21.55;;;3.72;;
19113;SDS011;9689;51.052;13.772;2023-03-13T00:43:43;20.85;;;2.92;;
19113;SDS011;9689;51.052;13.772;2023-03-13T00:48:45;20.00;;;3.75;;
19113;SDS011;9689;51.052;13.772;2023-03-13T00:53:46;14.02;;;3.45;;
19113;SDS011;9689;51.052;13.772;2023-03-13T00:58:48;18.85;;;3.33;;
19113;SDS011;9689;51.052;13.772;2023-03-13T01:03:52;16.25;;;3.28;;
19113;SDS011;9689;51.052;13.772;2023-03-13T01:08:54;18.13;;;3.05;;
19113;SDS011;9689;51.052;13.772;2023-03-13T01:13:56;16.67;;;3.75;;
19113;SDS011;9689;51.052;13.772;2023-03-13T01:19:00;15.50;;;3.20;;
19113;SDS011;9689;51.052;13.772;2023-03-13T01:24:04;17.75;;;2.85;;
19113;SDS011;9689;51.052;13.772;2023-03-13T01:29:05;21.90;;;3.20;;
19113;SDS011;9689;51.052;13.772;2023-03-13T01:34:09;18.45;;;3.30;;
19113;SDS011;9689;51.052;13.772;2023-03-13T01:39:10;14.15;;;3.60;;
19113;SDS011;9689;51.052;13.772;2023-03-13T01:44:17;19.13;;;3.15;;
19113;SDS011;9689;51.052;13.772;2023-03-13T01:49:23;17.05;;;3.17;;
19113;SDS011;9689;51.052;13.772;2023-03-13T01:54:42;12.07;;;2.50;;
19113;SDS011;9689;51.052;13.772;2023-03-13T01:59:52;17.42;;;3.20;;
19113;SDS011;9689;51.052;13.772;2023-03-13T02:04:58;16.35;;;3.25;;
19113;SDS011;9689;51.052;13.772;2023-03-13T02:10:00;13.15;;;2.90;;
19113;SDS011;9689;51.052;13.772;2023-03-13T02:15:03;21.52;;;2.90;;
19113;SDS011;9689;51.052;13.772;2023-03-13T02:20:09;26.05;;;3.75;;
19113;SDS011;9689;51.052;13.772;2023-03-13T02:25:15;21.02;;;3.75;;
19113;SDS011;9689;51.052;13.772;2023-03-13T02:30:27;19.63;;;3.10;;
19113;SDS011;9689;51.052;13.772;2023-03-13T02:35:28;11.63;;;3.00;;
19113;SDS011;9689;51.052;13.772;2023-03-13T02:40:34;21.50;;;3.63;;
19113;SDS011;9689;51.052;13.772;2023-03-13T02:45:38;15.73;;;2.80;;
19113;SDS011;9689;51.052;13.772;2023-03-13T02:50:41;18.25;;;3.28;;
19113;SDS011;9689;51.052;13.772;2023-03-13T02:55:42;14.70;;;3.00;;
19113;SDS011;9689;51.052;13.772;2023-03-13T03:00:45;13.30;;;2.70;;
19113;SDS011;9689;51.052;13.772;2023-03-13T03:05:45;23.60;;;3.58;;
19113;SDS011;9689;51.052;13.772;2023-03-13T03:10:46;20.08;;;2.83;;
19113;SDS011;9689;51.052;13.772;2023-03-13T03:15:48;15.60;;;2.53;;
19113;SDS011;9689;51.052;13.772;2023-03-13T03:20:49;26.85;;;3.38;;
19113;SDS011;9689;51.052;13.772;2023-03-13T03:25:50;18.90;;;2.65;;
19113;SDS011;9689;51.052;13.772;2023-03-13T03:30:53;28.58;;;3.50;;
19113;SDS011;9689;51.052;13.772;2023-03-13T03:35:57;19.80;;;2.67;;
19113;SDS011;9689;51.052;13.772;2023-03-13T03:41:01;21.00;;;2.90;;
19113;SDS011;9689;51.052;13.772;2023-03-13T03:46:05;15.18;;;3.10;;
19113;SDS011;9689;51.052;13.772;2023-03-13T03:51:06;20.55;;;3.03;;
19113;SDS011;9689;51.052;13.772;2023-03-13T03:56:11;23.30;;;2.92;;
19113;SDS011;9689;51.052;13.772;2023-03-13T04:01:21;18.35;;;3.05;;
19113;SDS011;9689;51.052;13.772;2023-03-13T04:06:22;17.38;;;3.30;;
19113;SDS011;9689;51.052;13.772;2023-03-13T04:11:23;19.05;;;2.92;;
19113;SDS011;9689;51.052;13.772;2023-03-13T04:16:27;21.20;;;3.67;;
19113;SDS011;9689;51.052;13.772;2023-03-13T04:21:28;14.27;;;2.80;;
19113;SDS011;9689;51.052;13.772;2023-03-13T04:26:38;15.98;;;2.92;;
19113;SDS011;9689;51.052;13.772;2023-03-13T04:31:40;27.20;;;3.25;;
19113;SDS011;9689;51.052;13.772;2023-03-13T04:36:59;26.60;;;3.72;;
19113;SDS011;9689;51.052;13.772;2023-03-13T04:42:06;16.05;;;2.55;;
19113;SDS011;9689;51.052;13.772;2023-03-13T04:47:34;17.48;;;2.50;;
19113;SDS011;9689;51.052;13.772;2023-03-13T04:52:43;20.55;;;3.15;;
19113;SDS011;9689;51.052;13.772;2023-03-13T04:58:03;19.33;;;3.10;;
19113;SDS011;9689;51.052;13.772;2023-03-13T05:03:40;26.73;;;3.55;;
19113;SDS011;9689;51.052;13.772;2023-03-13T05:08:51;22.55;;;3.72;;
19113;SDS011;9689;51.052;13.772;2023-03-13T05:14:03;11.57;;;2.65;;
19113;SDS011;9689;51.052;13.772;2023-03-13T05:19:17;19.40;;;2.83;;
19113;SDS011;9689;51.052;13.772;2023-03-13T05:24:33;18.83;;;2.92;;
19113;SDS011;9689;51.052;13.772;2023-03-13T05:29:55;20.23;;;2.70;;
19113;SDS011;9689;51.052;13.772;2023-03-13T05:35:16;18.40;;;3.58;;
19113;SDS011;9689;51.052;13.772;2023-03-13T05:40:34;19.50;;;3.38;;
19113;SDS011;9689;51.052;13.772;2023-03-13T05:46:10;17.40;;;3.42;;
19113;SDS011;9689;51.052;13.772;2023-03-13T05:51:21;17.25;;;4.15;;
19113;SDS011;9689;51.052;13.772;2023-03-13T05:56:40;13.30;;;3.85;;
19113;SDS011;9689;51.052;13.772;2023-03-13T06:02:06;23.08;;;4.03;;
19113;SDS011;9689;51.052;13.772;2023-03-13T06:07:13;16.73;;;3.78;;
19113;SDS011;9689;51.052;13.772;2023-03-13T06:12:14;24.77;;;4.03;;
19113;SDS011;9689;51.052;13.772;2023-03-13T06:17:16;14.10;;;3.67;;
19113;SDS011;9689;51.052;13.772;2023-03-13T06:22:18;15.30;;;4.05;;
19113;SDS011;9689;51.052;13.772;2023-03-13T06:27:19;24.75;;;4.07;;
19113;SDS011;9689;51.052;13.772;2023-03-13T06:32:19;16.33;;;4.90;;
19113;SDS011;9689;51.052;13.772;2023-03-13T06:37:22;22.13;;;5.38;;
19113;SDS011;9689;51.052;13.772;2023-03-13T06:42:23;19.02;;;5.90;;
19113;SDS011;9689;51.052;13.772;2023-03-13T06:47:25;17.20;;;5.25;;
19113;SDS011;9689;51.052;13.772;2023-03-13T06:52:27;17.48;;;5.78;;
19113;SDS011;9689;51.052;13.772;2023-03-13T06:57:41;19.55;;;5.60;;
19113;SDS011;9689;51.052;13.772;2023-03-13T07:02:42;20.25;;;5.10;;
19113;SDS011;9689;51.052;13.772;2023-03-13T07:07:44;17.38;;;4.93;;
19113;SDS011;9689;51.052;13.772;2023-03-13T07:12:45;11.50;;;4.07;;
19113;SDS011;9689;51.052;13.772;2023-03-13T07:17:48;14.93;;;4.70;;
19113;SDS011;9689;51.052;13.772;2023-03-13T07:22:51;13.57;;;5.40;;
19113;SDS011;9689;51.052;13.772;2023-03-13T07:32:57;14.43;;;4.70;;
19113;SDS011;9689;51.052;13.772;2023-03-13T07:37:59;18.17;;;4.95;;
19113;SDS011;9689;51.052;13.772;2023-03-13T07:43:00;18.48;;;5.03;;
19113;SDS011;9689;51.052;13.772;2023-03-13T07:48:00;11.20;;;4.70;;
19113;SDS011;9689;51.052;13.772;2023-03-13T07:53:02;9.70;;;4.03;;
19113;SDS011;9689;51.052;13.772;2023-03-13T07:58:05;10.68;;;4.72;;
19113;SDS011;9689;51.052;13.772;2023-03-13T08:03:06;17.52;;;3.90;;
19113;SDS011;9689;51.052;13.772;2023-03-13T08:08:09;15.13;;;3.47;;
19113;SDS011;9689;51.052;13.772;2023-03-13T08:13:10;16.35;;;3.72;;
19113;SDS011;9689;51.052;13.772;2023-03-13T08:18:11;12.73;;;5.00;;
19113;SDS011;9689;51.052;13.772;2023-03-13T08:23:13;16.60;;;6.75;;
19113;SDS011;9689;51.052;13.772;2023-03-13T08:28:14;13.00;;;6.28;;
19113;SDS011;9689;51.052;13.772;2023-03-13T08:33:14;16.58;;;5.75;;
19113;SDS011;9689;51.052;13.772;2023-03-13T08:38:17;14.60;;;6.43;;
19113;SDS011;9689;51.052;13.772;2023-03-13T08:43:18;13.90;;;6.32;;
19113;SDS011;9689;51.052;13.772;2023-03-13T08:48:18;12.40;;;5.20;;
19113;SDS011;9689;51.052;13.772;2023-03-13T08:53:21;12.60;;;6.13;;
19113;SDS011;9689;51.052;13.772;2023-03-13T08:58:22;23.60;;;5.65;;
19113;SDS011;9689;51.052;13.772;2023-03-13T09:03:22;13.65;;;4.95;;
19113;SDS011;9689;51.052;13.772;2023-03-13T09:08:25;11.98;;;4.53;;
19113;SDS011;9689;51.052;13.772;2023-03-13T09:13:26;12.52;;;3.92;;
19113;SDS011;9689;51.052;13.772;2023-03-13T09:18:28;13.38;;;4.03;;
19113;SDS011;9689;51.052;13.772;2023-03-13T09:23:30;9.52;;;2.40;;
19113;SDS011;9689;51.052;13.772;2023-03-13T09:28:32;6.05;;;1.90;;
19113;SDS011;9689;51.052;13.772;2023-03-13T09:33:33;6.38;;;1.80;;
19113;SDS011;9689;51.052;13.772;2023-03-13T09:38:35;4.00;;;1.92;;
19113;SDS011;9689;51.052;13.772;2023-03-13T09:43:38;6.50;;;2.08;;
19113;SDS011;9689;51.052;13.772;2023-03-13T09:48:44;7.20;;;2.10;;
19113;SDS011;9689;51.052;13.772;2023-03-13T09:53:50;4.78;;;1.73;;
19113;SDS011;9689;51.052;13.772;2023-03-13T09:58:56;6.70;;;1.95;;
19113;SDS011;9689;51.052;13.772;2023-03-13T10:04:04;5.53;;;1.50;;
19113;SDS011;9689;51.052;13.772;2023-03-13T10:09:15;3.22;;;1.55;;
19113;SDS011;9689;51.052;13.772;2023-03-13T10:14:21;7.75;;;1.70;;
19113;SDS011;9689;51.052;13.772;2023-03-13T10:19:27;2.90;;;1.23;;
19113;SDS011;9689;51.052;13.772;2023-03-13T10:24:34;3.38;;;1.30;;
19113;SDS011;9689;51.052;13.772;2023-03-13T10:29:40;2.83;;;1.35;;
19113;SDS011;9689;51.052;13.772;2023-03-13T10:34:46;5.10;;;1.90;;
19113;SDS011;9689;51.052;13.772;2023-03-13T10:39:51;2.47;;;1.05;;
19113;SDS011;9689;51.052;13.772;2023-03-13T10:44:55;1.38;;;0.90;;
19113;SDS011;9689;51.052;13.772;2023-03-13T10:49:57;2.58;;;1.10;;
19113;SDS011;9689;51.052;13.772;2023-03-13T10:55:00;0.95;;;0.77;;
19113;SDS011;9689;51.052;13.772;2023-03-13T11:00:03;2.53;;;0.75;;
19113;SDS011;9689;51.052;13.772;2023-03-13T11:05:29;1.38;;;0.70;;
19113;SDS011;9689;51.052;13.772;2023-03-13T11:10:38;2.00;;;0.90;;
19113;SDS011;9689;51.052;13.772;2023-03-13T11:15:56;4.55;;;1.13;;
19113;SDS011;9689;51.052;13.772;2023-03-13T11:21:02;3.08;;;0.80;;
19113;SDS011;9689;51.052;13.772;2023-03-13T11:26:19;5.65;;;1.20;;
19113;SDS011;9689;51.052;13.772;2023-03-13T11:31:29;5.53;;;1.30;;
19113;SDS011;9689;51.052;13.772;2023-03-13T11:36:33;1.95;;;0.88;;
19113;SDS011;9689;51.052;13.772;2023-03-13T11:41:45;1.45;;;0.57;;
19113;SDS011;9689;51.052;13.772;2023-03-13T11:47:04;2.70;;;1.58;;
19113;SDS011;9689;51.052;13.772;2023-03-13T11:52:23;2.25;;;0.80;;
19113;SDS011;9689;51.052;13.772;2023-03-13T11:57:39;2.60;;;0.70;;
19113;SDS011;9689;51.052;13.772;2023-03-13T12:02:50;1.40;;;0.90;;
19113;SDS011;9689;51.052;13.772;2023-03-13T12:07:56;1.67;;;1.00;;
19113;SDS011;9689;51.052;13.772;2023-03-13T12:13:06;1.52;;;0.90;;
19113;SDS011;9689;51.052;13.772;2023-03-13T12:18:14;1.52;;;0.82;;
19113;SDS011;9689;51.052;13.772;2023-03-13T12:23:20;6.20;;;0.85;;
19113;SDS011;9689;51.052;13.772;2023-03-13T12:28:30;3.05;;;0.80;;
19113;SDS011;9689;51.052;13.772;2023-03-13T12:33:38;2.95;;;0.82;;
19113;SDS011;9689;51.052;13.772;2023-03-13T12:38:46;2.33;;;0.82;;
19113;SDS011;9689;51.052;13.772;2023-03-13T12:43:52;1.60;;;0.80;;
19113;SDS011;9689;51.052;13.772;2023-03-13T12:54:42;1.15;;;0.70;;
19113;SDS011;9689;51.052;13.772;2023-03-13T13:00:00;3.10;;;0.85;;
19113;SDS011;9689;51.052;13.772;2023-03-13T13:05:04;1.60;;;0.60;;
19113;SDS011;9689;51.052;13.772;2023-03-13T13:10:16;4.43;;;0.90;;
19113;SDS011;9689;51.052;13.772;2023-03-13T13:15:24;5.88;;;1.05;;
19113;SDS011;9689;51.052;13.772;2023-03-13T13:20:28;0.80;;;0.80;;
19113;SDS011;9689;51.052;13.772;2023-03-13T13:25:33;1.20;;;0.68;;
19113;SDS011;9689;51.052;13.772;2023-03-13T13:30:36;3.03;;;0.90;;
19113;SDS011;9689;51.052;13.772;2023-03-13T13:35:37;2.88;;;0.93;;
19113;SDS011;9689;51.052;13.772;2023-03-13T13:40:38;1.10;;;0.70;;
19113;SDS011;9689;51.052;13.772;2023-03-13T13:45:43;1.88;;;0.75;;
19113;SDS011;9689;51.052;13.772;2023-03-13T13:51:21;1.67;;;1.00;;
19113;SDS011;9689;51.052;13.772;2023-03-13T13:56:28;2.50;;;0.70;;
19113;SDS011;9689;51.052;13.772;2023-03-13T14:01:36;3.55;;;0.90;;
19113;SDS011;9689;51.052;13.772;2023-03-13T14:06:41;1.92;;;0.80;;
19113;SDS011;9689;51.052;13.772;2023-03-13T14:11:43;4.43;;;0.70;;
19113;SDS011;9689;51.052;13.772;2023-03-13T14:16:46;1.10;;;0.70;;
19113;SDS011;9689;51.052;13.772;2023-03-13T14:21:49;1.38;;;0.60;;
19113;SDS011;9689;51.052;13.772;2023-03-13T14:26:50;2.78;;;1.30;;
19113;SDS011;9689;51.052;13.772;2023-03-13T14:31:53;1.48;;;0.50;;
19113;SDS011;9689;51.052;13.772;2023-03-13T14:36:56;1.30;;;0.85;;
19113;SDS011;9689;51.052;13.772;2023-03-13T14:42:16;8.90;;;0.80;;
19113;SDS011;9689;51.052;13.772;2023-03-13T14:47:20;1.70;;;0.75;;
19113;SDS011;9689;51.052;13.772;2023-03-13T14:52:24;1.85;;;0.90;;
19113;SDS011;9689;51.052;13.772;2023-03-13T14:57:26;2.03;;;0.77;;
19113;SDS011;9689;51.052;13.772;2023-03-13T15:02:29;1.35;;;0.90;;
19113;SDS011;9689;51.052;13.772;2023-03-13T15:07:35;2.70;;;0.80;;
19113;SDS011;9689;51.052;13.772;2023-03-13T15:12:40;1.95;;;0.75;;
19113;SDS011;9689;51.052;13.772;2023-03-13T15:17:43;1.35;;;0.85;;
19113;SDS011;9689;51.052;13.772;2023-03-13T15:22:44;2.25;;;0.90;;
19113;SDS011;9689;51.052;13.772;2023-03-13T15:27:45;1.30;;;0.80;;
19113;SDS011;9689;51.052;13.772;2023-03-13T15:32:48;1.27;;;0.65;;
19113;SDS011;9689;51.052;13.772;2023-03-13T15:37:50;1.80;;;1.08;;
19113;SDS011;9689;51.052;13.772;2023-03-13T15:42:51;5.72;;;1.20;;
19113;SDS011;9689;51.052;13.772;2023-03-13T15:47:53;3.17;;;0.90;;
19113;SDS011;9689;51.052;13.772;2023-03-13T15:52:54;1.70;;;1.27;;
19113;SDS011;9689;51.052;13.772;2023-03-13T15:57:55;1.50;;;1.05;;
19113;SDS011;9689;51.052;13.772;2023-03-13T16:02:57;2.70;;;0.90;;
19113;SDS011;9689;51.052;13.772;2023-03-13T16:07:58;6.03;;;0.70;;
19113;SDS011;9689;51.052;13.772;2023-03-13T16:12:58;2.53;;;1.00;;
19113;SDS011;9689;51.052;13.772;2023-03-13T16:18:03;1.88;;;1.00;;
19113;SDS011;9689;51.052;13.772;2023-03-13T16:23:04;1.77;;;1.10;;
19113;SDS011;9689;51.052;13.772;2023-03-13T16:28:05;3.50;;;1.00;;
19113;SDS011;9689;51.052;13.772;2023-03-13T16:33:08;2.28;;;1.20;;
19113;SDS011;9689;51.052;13.772;2023-03-13T16:38:09;2.75;;;0.93;;
19113;SDS011;9689;51.052;13.772;2023-03-13T16:43:11;2.95;;;1.13;;
19113;SDS011;9689;51.052;13.772;2023-03-13T16:48:15;3.38;;;1.40;;
19113;SDS011;9689;51.052;13.772;2023-03-13T16:53:21;4.38;;;1.42;;
19113;SDS011;9689;51.052;13.772;2023-03-13T16:58:21;2.20;;;1.13;;
19113;SDS011;9689;51.052;13.772;2023-03-13T17:03:23;4.53;;;1.38;;
19113;SDS011;9689;51.052;13.772;2023-03-13T17:08:24;2.78;;;1.30;;
19113;SDS011;9689;51.052;13.772;2023-03-13T17:13:25;3.08;;;1.38;;
19113;SDS011;9689;51.052;13.772;2023-03-13T17:18:27;3.78;;;1.40;;
19113;SDS011;9689;51.052;13.772;2023-03-13T17:23:29;4.38;;;2.03;;
19113;SDS011;9689;51.052;13.772;2023-03-13T17:28:30;4.43;;;1.70;;
19113;SDS011;9689;51.052;13.772;2023-03-13T17:33:32;3.92;;;1.52;;
19113;SDS011;9689;51.052;13.772;2023-03-13T17:38:32;2.70;;;1.67;;
19113;SDS011;9689;51.052;13.772;2023-03-13T17:43:33;5.82;;;2.55;;
19113;SDS011;9689;51.052;13.772;2023-03-13T17:48:35;2.75;;;1.98;;
19113;SDS011;9689;51.052;13.772;2023-03-13T17:53:36;11.18;;;4.35;;
19113;SDS011;9689;51.052;13.772;2023-03-13T17:58:36;4.53;;;2.05;;
19113;SDS011;9689;51.052;13.772;2023-03-13T18:03:39;3.05;;;2.10;;
19113;SDS011;9689;51.052;13.772;2023-03-13T18:08:40;5.57;;;2.83;;
19113;SDS011;9689;51.052;13.772;2023-03-13T18:13:41;7.15;;;2.55;;
19113;SDS011;9689;51.052;13.772;2023-03-13T18:18:44;4.68;;;2.10;;
19113;SDS011;9689;51.052;13.772;2023-03-13T18:23:44;4.57;;;2.05;;
19113;SDS011;9689;51.052;13.772;2023-03-13T18:28:45;4.75;;;2.10;;
19113;SDS011;9689;51.052;13.772;2023-03-13T18:33:47;4.93;;;1.73;;
19113;SDS011;9689;51.052;13.772;2023-03-13T18:38:48;4.40;;;1.90;;
19113;SDS011;9689;51.052;13.772;2023-03-13T18:43:49;3.85;;;1.42;;
19113;SDS011;9689;51.052;13.772;2023-03-13T18:48:52;6.32;;;2.10;;
19113;SDS011;9689;51.052;13.772;2023-03-13T18:53:54;4.60;;;2.10;;
19113;SDS011;9689;51.052;13.772;2023-03-13T18:58:55;7.03;;;2.10;;
19113;SDS011;9689;51.052;13.772;2023-03-13T19:03:59;8.00;;;2.50;;
19113;SDS011;9689;51.052;13.772;2023-03-13T19:09:01;6.60;;;2.30;;
19113;SDS011;9689;51.052;13.772;2023-03-13T19:14:27;5.75;;;2.10;;
19113;SDS011;9689;51.052;13.772;2023-03-13T19:19:29;2.28;;;1.55;;
19113;SDS011;9689;51.052;13.772;2023-03-13T19:24:30;2.72;;;1.95;;
19113;SDS011;9689;51.052;13.772;2023-03-13T19:29:31;3.80;;;2.20;;
19113;SDS011;9689;51.052;13.772;2023-03-13T19:34:38;4.95;;;1.92;;
19113;SDS011;9689;51.052;13.772;2023-03-13T19:39:39;4.85;;;2.22;;
19113;SDS011;9689;51.052;13.772;2023-03-13T19:44:40;7.28;;;2.35;;
19113;SDS011;9689;51.052;13.772;2023-03-13T19:49:42;4.15;;;1.98;;
19113;SDS011;9689;51.052;13.772;2023-03-13T19:54:49;7.05;;;2.55;;
19113;SDS011;9689;51.052;13.772;2023-03-13T19:59:51;4.50;;;2.13;;
19113;SDS011;9689;51.052;13.772;2023-03-13T20:04:56;9.48;;;2.60;;
19113;SDS011;9689;51.052;13.772;2023-03-13T20:09:56;5.57;;;2.55;;
19113;SDS011;9689;51.052;13.772;2023-03-13T20:14:57;4.82;;;2.53;;
19113;SDS011;9689;51.052;13.772;2023-03-13T20:19:59;6.30;;;2.72;;
19113;SDS011;9689;51.052;13.772;2023-03-13T20:25:00;3.72;;;2.13;;
19113;SDS011;9689;51.052;13.772;2023-03-13T20:30:02;3.72;;;1.77;;
19113;SDS011;9689;51.052;13.772;2023-03-13T20:35:06;3.35;;;1.88;;
19113;SDS011;9689;51.052;13.772;2023-03-13T20:40:11;1.80;;;1.08;;
19113;SDS011;9689;51.052;13.772;2023-03-13T20:45:12;3.28;;;1.30;;
19113;SDS011;9689;51.052;13.772;2023-03-13T20:50:15;1.85;;;0.93;;
19113;SDS011;9689;51.052;13.772;2023-03-13T20:55:18;1.80;;;1.10;;
19113;SDS011;9689;51.052;13.772;2023-03-13T21:00:19;1.55;;;0.85;;
19113;SDS011;9689;51.052;13.772;2023-03-13T21:05:21;2.17;;;1.15;;
19113;SDS011;9689;51.052;13.772;2023-03-13T21:10:22;1.27;;;0.82;;
19113;SDS011;9689;51.052;13.772;2023-03-13T21:15:23;3.90;;;1.10;;
19113;SDS011;9689;51.052;13.772;2023-03-13T21:20:25;1.67;;;1.00;;
19113;SDS011;9689;51.052;13.772;2023-03-13T21:25:28;2.20;;;0.93;;
19113;SDS011;9689;51.052;13.772;2023-03-13T21:30:28;2.58;;;1.20;;
19113;SDS011;9689;51.052;13.772;2023-03-13T21:35:30;5.40;;;1.17;;
19113;SDS011;9689;51.052;13.772;2023-03-13T21:40:33;2.05;;;0.90;;
19113;SDS011;9689;51.052;13.772;2023-03-13T21:45:33;2.28;;;1.00;;
19113;SDS011;9689;51.052;13.772;2023-03-13T21:50:36;2.70;;;1.27;;
19113;SDS011;9689;51.052;13.772;2023-03-13T21:55:36;3.15;;;1.10;;
19113;SDS011;9689;51.052;13.772;2023-03-13T22:00:39;1.67;;;0.82;;
19113;SDS011;9689;51.052;13.772;2023-03-13T22:05:42;1.60;;;1.15;;
19113;SDS011;9689;51.052;13.772;2023-03-13T22:10:45;1.00;;;0.80;;
19113;SDS011;9689;51.052;13.772;2023-03-13T22:15:47;2.15;;;1.13;;
19113;SDS011;9689;51.052;13.772;2023-03-13T22:20:50;1.40;;;1.00;;
19113;SDS011;9689;51.052;13.772;2023-03-13T22:25:53;1.75;;;1.08;;
19113;SDS011;9689;51.052;13.772;2023-03-13T22:30:58;1.48;;;1.10;;
19113;SDS011;9689;51.052;13.772;2023-03-13T22:36:00;2.17;;;1.15;;
19113;SDS011;9689;51.052;13.772;2023-03-13T22:41:02;3.53;;;0.95;;
19113;SDS011;9689;51.052;13.772;2023-03-13T22:46:04;4.00;;;1.25;;
19113;SDS011;9689;51.052;13.772;2023-03-13T22:51:07;1.52;;;0.82;;
19113;SDS011;9689;51.052;13.772;2023-03-13T22:56:11;2.97;;;1.15;;
19113;SDS011;9689;51.052;13.772;2023-03-13T23:01:15;2.80;;;1.38;;
19113;SDS011;9689;51.052;13.772;2023-03-13T23:06:19;2.20;;;1.35;;
19113;SDS011;9689;51.052;13.772;2023-03-13T23:11:21;2.92;;;1.38;;
19113;SDS011;9689;51.052;13.772;2023-03-13T23:16:22;3.33;;;1.30;;
19113;SDS011;9689;51.052;13.772;2023-03-13T23:21:24;2.35;;;1.45;;
19113;SDS011;9689;51.052;13.772;2023-03-13T23:26:25;2.83;;;1.77;;
19113;SDS011;9689;51.052;13.772;2023-03-13T23:31:26;2.53;;;1.30;;
19113;SDS011;9689;51.052;13.772;2023-03-13T23:36:28;4.55;;;1.40;;
19113;SDS011;9689;51.052;13.772;2023-03-13T23:41:29;2.10;;;1.38;;
19113;SDS011;9689;51.052;13.772;2023-03-13T23:46:29;2.55;;;1.30;;
19113;SDS011;9689;51.052;13.772;2023-03-13T23:51:31;1.35;;;1.00;;
19113;SDS011;9689;51.052;13.772;2023-03-13T23:56:32;5.20;;;1.20;;
